createdAt,value
2022-12-06T00:01:48.767Z,6.44
2022-12-06T00:06:54.932Z,6.47
2022-12-06T00:12:00.896Z,6.47
2022-12-06T00:17:06.429Z,6.38
2022-12-06T00:22:11.862Z,6.42
2022-12-06T00:27:17.290Z,6.42
2022-12-06T00:32:22.773Z,6.41
2022-12-06T00:37:28.217Z,6.38
2022-12-06T00:42:33.627Z,6.32
2022-12-06T00:47:39.055Z,6.25
2022-12-06T00:52:44.489Z,6.24
2022-12-06T00:57:49.903Z,6.26
2022-12-06T01:02:55.442Z,6.21
2022-12-06T01:08:01.337Z,6.16
2022-12-06T01:13:07.858Z,6.25
2022-12-06T01:18:13.372Z,6.34
2022-12-06T01:23:18.760Z,6.39
2022-12-06T01:28:24.154Z,6.43
2022-12-06T01:33:29.644Z,6.44
2022-12-06T01:38:35.448Z,6.43
2022-12-06T01:43:43.629Z,6.51
2022-12-06T01:48:52.056Z,6.48
2022-12-06T01:53:59.363Z,6.48
2022-12-06T01:59:06.476Z,6.57
2022-12-06T02:04:11.912Z,6.58
2022-12-06T02:09:18.556Z,6.65
2022-12-06T02:14:29.767Z,6.66
2022-12-06T02:19:44.506Z,6.59
2022-12-06T02:25:08.305Z,6.57
2022-12-06T02:30:36.293Z,6.60
2022-12-06T02:35:44.737Z,6.56
2022-12-06T02:40:55.868Z,6.57
2022-12-06T02:46:04.131Z,6.55
2022-12-06T02:51:12.896Z,6.57
2022-12-06T02:56:19.655Z,6.54
2022-12-06T03:01:28.138Z,6.56
2022-12-06T03:06:48.838Z,6.55
2022-12-06T03:12:00.912Z,6.60
2022-12-06T03:17:21.301Z,6.59
2022-12-06T03:22:29.796Z,6.57
2022-12-06T03:27:36.842Z,6.53
2022-12-06T03:32:45.492Z,6.54
2022-12-06T03:37:53.921Z,6.50
2022-12-06T03:43:00.222Z,6.53
2022-12-06T03:48:17.664Z,6.51
2022-12-06T03:53:23.291Z,6.48
2022-12-06T03:58:28.684Z,6.31
2022-12-06T04:03:34.161Z,6.38
2022-12-06T04:08:41.128Z,6.27
2022-12-06T04:13:46.675Z,6.11
2022-12-06T04:18:52.159Z,6.22
2022-12-06T04:23:57.674Z,6.16
2022-12-06T04:29:20.826Z,6.17
2022-12-06T04:34:44.439Z,6.27
2022-12-06T04:39:50.405Z,6.25
2022-12-06T04:44:55.853Z,6.23
2022-12-06T04:50:01.692Z,6.26
2022-12-06T04:55:24.008Z,6.23
2022-12-06T05:00:29.507Z,6.32
2022-12-06T05:05:34.951Z,6.22
2022-12-06T05:10:41.044Z,6.14
2022-12-06T05:15:55.138Z,6.20
2022-12-06T05:21:15.604Z,6.10
2022-12-06T05:26:23.007Z,6.05
2022-12-06T05:31:28.956Z,5.99
2022-12-06T05:36:34.382Z,6.02
2022-12-06T05:41:39.751Z,5.99
2022-12-06T05:46:45.132Z,6.06
2022-12-06T05:51:50.535Z,6.10
2022-12-06T05:56:55.939Z,6.12
2022-12-06T06:02:01.482Z,6.06
2022-12-06T06:07:07.214Z,5.97
2022-12-06T06:12:12.928Z,6.04
2022-12-06T06:17:18.556Z,6.02
2022-12-06T06:22:24.711Z,6.03
2022-12-06T06:27:31.755Z,6.12
2022-12-06T06:32:37.926Z,6.18
2022-12-06T06:37:43.321Z,6.24
2022-12-06T06:42:48.767Z,6.22
2022-12-06T06:47:54.133Z,6.28
2022-12-06T06:52:59.663Z,6.19
2022-12-06T06:58:06.348Z,6.25
2022-12-06T07:03:16.660Z,6.26
2022-12-06T07:08:22.436Z,6.28
2022-12-06T07:13:28.899Z,6.31
2022-12-06T07:18:35.252Z,6.24
2022-12-06T07:23:40.999Z,6.21
2022-12-06T07:28:47.620Z,6.16
2022-12-06T07:33:55.806Z,6.26
2022-12-06T07:39:01.655Z,6.25
2022-12-06T07:44:25.197Z,6.37
2022-12-06T07:49:31.417Z,6.40
2022-12-06T07:54:36.834Z,6.18
2022-12-06T07:59:42.211Z,6.17
2022-12-06T08:04:47.984Z,6.32
2022-12-06T08:09:54.406Z,6.16
2022-12-06T08:15:00.452Z,6.31
2022-12-06T08:20:07.469Z,6.36
2022-12-06T08:25:12.850Z,6.38
2022-12-06T08:30:18.361Z,6.18
2022-12-06T08:35:23.885Z,6.16
2022-12-06T08:40:29.255Z,6.12
2022-12-06T08:45:35.672Z,6.15
2022-12-06T08:50:41.123Z,6.19
2022-12-06T08:56:02.005Z,6.31
2022-12-06T09:01:02.596Z,6.44
2022-12-06T09:06:09.215Z,6.30
2022-12-06T09:11:15.937Z,6.24
2022-12-06T09:16:25.149Z,6.31
2022-12-06T09:21:32.005Z,6.37
2022-12-06T09:26:38.418Z,6.51
2022-12-06T09:31:43.927Z,6.54
2022-12-06T09:36:55.448Z,6.38
2022-12-06T09:42:21.493Z,6.43
2022-12-06T09:48:03.371Z,6.41
2022-12-06T09:53:26.702Z,6.48
2022-12-06T09:59:08.487Z,6.38
2022-12-06T10:04:24.174Z,6.71
2022-12-06T10:09:52.739Z,6.35
2022-12-06T10:15:16.292Z,6.28
2022-12-06T10:20:36.630Z,6.27
2022-12-06T10:25:47.749Z,6.09
2022-12-06T10:30:56.172Z,6.08
2022-12-06T10:36:07.310Z,5.94
2022-12-06T10:41:50.483Z,6.00
2022-12-06T10:47:12.357Z,6.02
2022-12-06T10:52:42.176Z,5.94
2022-12-06T10:57:53.773Z,5.86
2022-12-06T11:03:17.621Z,5.94
2022-12-06T11:08:35.099Z,5.84
2022-12-06T11:13:43.528Z,6.05
2022-12-06T11:18:50.165Z,6.07
2022-12-06T11:24:07.195Z,6.09
2022-12-06T11:29:15.954Z,5.98
2022-12-06T11:34:27.248Z,6.12
2022-12-06T11:39:34.760Z,6.27
2022-12-06T11:44:55.280Z,6.30
2022-12-06T11:50:07.818Z,6.28
2022-12-06T11:55:20.584Z,6.23
2022-12-06T12:00:27.466Z,6.23
2022-12-06T12:05:39.010Z,6.25
2022-12-06T12:10:46.681Z,6.23
2022-12-06T12:15:54.378Z,6.34
2022-12-06T12:21:01.059Z,6.37
2022-12-06T12:26:14.949Z,6.31
2022-12-06T12:31:22.802Z,6.44
2022-12-06T12:36:30.282Z,6.35
2022-12-06T12:41:44.974Z,6.30
2022-12-06T12:47:20.438Z,6.35
2022-12-06T12:52:38.322Z,6.32
2022-12-06T12:57:46.934Z,6.29
2022-12-06T13:02:58.405Z,6.17
2022-12-06T13:08:26.978Z,6.20
2022-12-06T13:13:47.979Z,6.29
2022-12-06T13:18:56.483Z,6.11
2022-12-06T13:24:10.663Z,6.02
2022-12-06T13:29:43.339Z,6.02
2022-12-06T13:34:54.300Z,5.89
2022-12-06T13:40:00.090Z,5.77
2022-12-06T13:45:08.147Z,5.84
2022-12-06T13:50:19.444Z,5.82
2022-12-06T13:55:30.863Z,5.85
2022-12-06T14:00:45.432Z,5.85
2022-12-06T14:06:07.411Z,5.86
2022-12-06T14:11:19.358Z,5.78
2022-12-06T14:16:46.495Z,5.76
2022-12-06T14:21:58.681Z,5.65
2022-12-06T14:27:06.917Z,5.79
2022-12-06T14:32:12.943Z,5.79
2022-12-06T14:37:23.529Z,5.86
2022-12-06T14:42:47.163Z,5.64
2022-12-06T14:47:52.824Z,5.64
2022-12-06T14:53:15.662Z,5.69
2022-12-06T14:58:24.092Z,5.67
2022-12-06T15:03:32.833Z,5.61
2022-12-06T15:08:40.321Z,5.61
2022-12-06T15:13:48.752Z,5.59
2022-12-06T15:19:01.587Z,5.63
2022-12-06T15:24:19.255Z,5.63
2022-12-06T15:29:24.884Z,5.66
2022-12-06T15:34:32.909Z,5.56
2022-12-06T15:39:38.439Z,5.63
2022-12-06T15:44:48.808Z,5.60
2022-12-06T15:49:52.597Z,5.60
2022-12-06T15:54:58.065Z,5.44
2022-12-06T16:00:07.168Z,5.42
2022-12-06T16:05:15.577Z,5.53
2022-12-06T16:10:23.227Z,5.53
2022-12-06T16:15:28.287Z,5.55
2022-12-06T16:20:34.123Z,5.64
2022-12-06T16:25:39.785Z,5.60
2022-12-06T16:30:45.273Z,5.67
2022-12-06T16:35:54.837Z,5.67
2022-12-06T16:41:05.242Z,5.63
2022-12-06T16:46:31.634Z,5.63
2022-12-06T16:51:37.521Z,5.74
2022-12-06T16:56:43.445Z,5.73
2022-12-06T17:01:56.361Z,5.73
2022-12-06T17:07:02.121Z,5.76
2022-12-06T17:12:11.111Z,5.82
2022-12-06T17:17:20.279Z,5.82
2022-12-06T17:22:26.310Z,5.86
2022-12-06T17:27:31.897Z,5.75
2022-12-06T17:32:37.449Z,5.89
2022-12-06T17:37:42.835Z,5.88
2022-12-06T17:43:00.303Z,5.85
2022-12-06T17:48:06.172Z,5.79
2022-12-06T17:53:11.622Z,5.85
2022-12-06T17:58:16.995Z,5.75
2022-12-06T18:03:22.552Z,5.85
2022-12-06T18:08:27.961Z,5.94
2022-12-06T18:13:33.744Z,5.94
2022-12-06T18:18:39.283Z,5.84
2022-12-06T18:24:19.298Z,5.76
2022-12-06T18:28:58.445Z,5.76
2022-12-06T18:34:04.794Z,5.81
2022-12-06T18:39:14.814Z,5.91
2022-12-06T18:44:19.866Z,5.88
2022-12-06T18:49:25.263Z,6.00
2022-12-06T18:54:30.686Z,6.06
2022-12-06T18:59:37.727Z,6.06
2022-12-06T19:04:43.167Z,6.01
2022-12-06T19:09:48.545Z,5.95
2022-12-06T19:14:54.095Z,5.94
2022-12-06T19:19:59.862Z,6.02
2022-12-06T19:25:06.483Z,6.04
2022-12-06T19:30:12.912Z,5.94
2022-12-06T19:35:18.357Z,5.88
2022-12-06T19:40:23.735Z,5.86
2022-12-06T19:45:29.203Z,5.77
2022-12-06T19:50:35.697Z,5.73
2022-12-06T19:55:44.121Z,5.73
2022-12-06T20:00:51.112Z,5.74
2022-12-06T20:06:05.568Z,5.73
2022-12-06T20:11:14.723Z,5.78
2022-12-06T20:16:20.214Z,5.71
2022-12-06T20:21:26.143Z,5.68
2022-12-06T20:26:33.826Z,5.77
2022-12-06T20:31:39.815Z,5.81
2022-12-06T20:36:45.726Z,5.87
2022-12-06T20:41:51.915Z,5.84
2022-12-06T20:46:57.578Z,5.82
2022-12-06T20:52:05.007Z,5.79
2022-12-06T20:57:10.625Z,5.93
2022-12-06T21:02:16.148Z,5.88
2022-12-06T21:07:21.814Z,5.92
2022-12-06T21:12:27.353Z,5.96
2022-12-06T21:17:34.283Z,5.96
2022-12-06T21:22:39.665Z,5.98
2022-12-06T21:27:45.051Z,6.05
2022-12-06T21:32:50.505Z,5.94
2022-12-06T21:37:55.957Z,6.01
2022-12-06T21:43:01.587Z,5.99
2022-12-06T21:48:08.378Z,5.90
2022-12-06T21:53:13.744Z,5.88
2022-12-06T21:58:19.191Z,5.75
2022-12-06T22:03:24.778Z,5.64
2022-12-06T22:08:30.171Z,5.21
2022-12-06T22:13:36.107Z,5.14
2022-12-06T22:18:46.014Z,5.14
2022-12-06T22:23:50.470Z,5.04
2022-12-06T22:28:56.600Z,4.78
2022-12-06T22:34:03.127Z,4.78
2022-12-06T22:39:08.580Z,4.75
2022-12-06T22:44:14.103Z,4.68
2022-12-06T22:49:19.543Z,4.66
2022-12-06T22:54:24.956Z,4.64
2022-12-06T22:59:30.570Z,4.64
2022-12-06T23:04:36.096Z,4.76
2022-12-06T23:09:41.567Z,5.60
2022-12-06T23:14:46.940Z,5.25
2022-12-06T23:19:52.312Z,5.06
2022-12-06T23:24:57.685Z,4.99
2022-12-06T23:30:03.551Z,4.87
2022-12-06T23:35:09.926Z,4.92
2022-12-06T23:40:15.448Z,4.98
2022-12-06T23:45:20.902Z,4.97
2022-12-06T23:50:26.281Z,5.11
2022-12-06T23:55:31.656Z,5.11
